Time;durP1;ratioP1;P1;durP2;ratioP2;P2;SDS_P1;SDS_P2;PMS_P1;PMS_P2;Temp;Humidity;BMP_temperature;BMP_pressure;BME280_temperature;BME280_humidity;BME280_pressure;Samples;Min_cycle;Max_cycle;Signal;HPM_P1;HPM_P2
2023/04/10 00:00:47;;;;;;;11.87;9.77;;;;;;;6.01;58.08;99613.56;5076384;28;39085;-78
2023/04/10 00:03:16;;;;;;;11.70;8.97;;;;;;;6.00;57.79;99627.63;5094189;28;43959;-78
2023/04/10 00:05:44;;;;;;;11.37;8.50;;;;;;;5.91;57.64;99617.41;5076138;28;42850;-77
2023/04/10 00:08:12;;;;;;;9.57;8.07;;;;;;;5.94;57.65;99627.78;5092942;28;41347;-77
2023/04/10 00:10:39;;;;;;;10.33;7.97;;;;;;;5.91;57.66;99638.44;5094420;28;40003;-77
2023/04/10 00:13:07;;;;;;;9.80;8.13;;;;;;;5.88;57.48;99637.63;5092890;28;41012;-78
2023/04/10 00:15:35;;;;;;;14.10;11.00;;;;;;;5.87;58.02;99642.03;5092952;28;43703;-77
2023/04/10 00:18:05;;;;;;;12.73;10.00;;;;;;;5.84;58.01;99642.09;5092922;28;42279;-77
2023/04/10 00:20:32;;;;;;;13.23;9.87;;;;;;;5.81;57.74;99644.00;5092987;28;40646;-77
2023/04/10 00:23:00;;;;;;;11.27;8.50;;;;;;;5.78;57.60;99640.53;5093192;28;42636;-78
2023/04/10 00:25:27;;;;;;;10.50;8.60;;;;;;;5.75;57.52;99638.00;5093037;28;42963;-77
2023/04/10 00:27:55;;;;;;;11.47;8.13;;;;;;;5.63;57.74;99627.00;5092632;28;41451;-77
2023/04/10 00:30:23;;;;;;;9.80;8.37;;;;;;;5.40;58.25;99589.16;5075916;28;40953;-77
2023/04/10 00:32:50;;;;;;;12.37;8.53;;;;;;;5.67;57.86;99623.38;5075704;28;40569;-78
2023/04/10 00:35:20;;;;;;;12.23;9.83;;;;;;;5.65;58.43;99619.94;5075711;28;42852;-77
2023/04/10 00:37:49;;;;;;;11.17;8.60;;;;;;;5.64;59.14;99611.19;5092681;28;42032;-78
2023/04/10 00:40:16;;;;;;;12.77;10.00;;;;;;;5.64;59.48;99607.69;5093716;28;40696;-77
2023/04/10 00:42:44;;;;;;;11.80;9.43;;;;;;;5.64;59.21;99611.19;5075671;28;41713;-77
2023/04/10 00:45:11;;;;;;;12.00;9.53;;;;;;;5.62;58.80;99617.38;5092770;28;41762;-77
2023/04/10 00:47:39;;;;;;;11.27;8.83;;;;;;;5.59;58.85;99614.84;5075628;28;41009;-77
2023/04/10 00:50:07;;;;;;;10.03;8.13;;;;;;;5.56;58.54;99609.72;5092240;28;40967;-78
2023/04/10 00:52:36;;;;;;;10.57;8.87;;;;;;;5.54;58.23;99611.53;5075341;28;40695;-77
2023/04/10 00:55:05;;;;;;;10.50;8.50;;;;;;;5.50;58.56;99607.25;5092569;28;43535;-76
2023/04/10 00:57:33;;;;;;;11.10;8.37;;;;;;;5.47;59.32;99599.47;5092418;28;42067;-77
2023/04/10 01:00:02;;;;;;;11.10;8.20;;;;;;;5.44;59.83;99597.78;5075626;28;39172;-78
2023/04/10 01:02:30;;;;;;;10.83;8.63;;;;;;;5.43;59.17;99598.72;5075325;28;42139;-77
2023/04/10 01:04:58;;;;;;;13.00;9.70;;;;;;;5.43;59.08;99608.34;5075255;28;42800;-78
2023/04/10 01:07:36;;;;;;;11.03;9.17;;;;;;;5.39;59.06;99595.31;5093418;28;42287;-78
2023/04/10 01:10:15;;;;;;;11.13;8.80;;;;;;;5.37;58.99;99594.47;5090568;28;39818;-77
2023/04/10 01:12:53;;;;;;;11.17;8.33;;;;;;;5.36;60.17;99590.13;5091448;28;42730;-77
2023/04/10 01:15:23;;;;;;;12.37;9.43;;;;;;;5.34;61.12;99584.06;5075152;28;41676;-77
2023/04/10 01:17:56;;;;;;;11.70;10.00;;;;;;;5.33;60.33;99595.47;5074946;28;42652;-77
2023/04/10 01:20:25;;;;;;;13.13;9.83;;;;;;;5.31;60.13;99599.94;5074799;28;39756;-77
2023/04/10 01:23:13;;;;;;;11.30;9.23;;;;;;;5.27;59.95;99603.53;5091774;28;40805;-77
2023/04/10 01:25:46;;;;;;;9.97;8.37;;;;;;;5.24;59.67;99608.88;5075310;28;41556;-76
2023/04/10 01:29:00;;;;;;;9.50;8.13;;;;;;;5.20;59.64;99607.25;5092013;28;42274;-79
2023/04/10 01:31:36;;;;;;;12.80;10.00;;;;;;;4.92;59.54;99583.56;4997472;28;39399;-77
2023/04/10 01:34:08;;;;;;;12.07;8.70;;;;;;;4.97;59.71;99601.78;5069013;28;42379;-78
2023/04/10 01:36:40;;;;;;;10.30;8.03;;;;;;;5.05;59.82;99623.44;5075039;28;42755;-77
2023/04/10 01:39:09;;;;;;;12.13;9.00;;;;;;;5.03;59.78;99622.63;5074901;28;41177;-77
2023/04/10 01:41:41;;;;;;;11.70;9.77;;;;;;;5.01;59.67;99632.31;5091446;28;40039;-77
2023/04/10 01:44:14;;;;;;;12.87;9.67;;;;;;;4.96;59.70;99635.03;5088414;28;41791;-76
2023/04/10 01:46:44;;;;;;;10.47;8.30;;;;;;;4.91;59.66;99636.94;5089504;28;44051;-77
2023/04/10 01:49:13;;;;;;;12.30;8.73;;;;;;;4.87;59.78;99640.53;5074779;28;42322;-77
2023/04/10 01:51:42;;;;;;;10.93;8.37;;;;;;;4.87;59.72;99645.78;5091589;28;39929;-76
2023/04/10 01:54:12;;;;;;;10.60;8.37;;;;;;;4.84;60.09;99645.88;5074802;28;42011;-77
2023/04/10 01:56:40;;;;;;;10.67;8.40;;;;;;;4.82;59.85;99642.41;5074339;28;41985;-76
2023/04/10 01:59:08;;;;;;;9.70;7.57;;;;;;;4.79;60.02;99645.16;5074221;28;42443;-77
2023/04/10 02:01:37;;;;;;;9.90;8.50;;;;;;;4.77;60.26;99648.72;5074235;28;39364;-78
2023/04/10 02:04:06;;;;;;;9.50;8.37;;;;;;;4.75;60.41;99650.50;5074528;28;40734;-76
2023/04/10 02:06:41;;;;;;;10.60;8.73;;;;;;;4.74;60.34;99638.28;5074046;28;42920;-77
2023/04/10 02:09:18;;;;;;;12.33;9.57;;;;;;;4.70;60.29;99633.09;5089327;28;42028;-77
2023/04/10 02:11:54;;;;;;;11.70;8.77;;;;;;;4.68;60.13;99642.81;5090538;28;40997;-77
2023/04/10 02:14:27;;;;;;;10.20;8.23;;;;;;;4.57;60.03;99620.38;5074132;28;41033;-77
2023/04/10 02:16:57;;;;;;;9.50;7.73;;;;;;;4.63;60.00;99639.44;5090636;28;43653;-76
2023/04/10 02:19:28;;;;;;;10.07;7.50;;;;;;;4.60;60.43;99639.50;5074448;28;41098;-77
2023/04/10 02:21:56;;;;;;;11.03;8.33;;;;;;;4.58;60.33;99628.19;5091241;28;39562;-77
2023/04/10 02:24:24;;;;;;;10.57;7.83;;;;;;;4.56;60.59;99623.91;5092432;28;42016;-78
2023/04/10 02:26:53;;;;;;;10.67;8.77;;;;;;;4.53;61.22;99614.34;5073719;28;41895;-77
2023/04/10 02:29:20;;;;;;;12.70;9.93;;;;;;;4.53;62.00;99613.47;5090738;28;40963;-76
2023/04/10 02:31:50;;;;;;;14.80;10.93;;;;;;;4.51;61.69;99621.38;5090400;28;39188;-77
2023/04/10 02:34:19;;;;;;;13.43;10.37;;;;;;;4.52;62.33;99622.25;5073928;28;40867;-77
2023/04/10 02:36:47;;;;;;;15.57;11.47;;;;;;;4.50;62.46;99617.03;5090344;28;42050;-77
2023/04/10 02:39:15;;;;;;;17.00;12.23;;;;;;;4.50;62.56;99619.66;5090843;28;42382;-77
2023/04/10 02:41:52;;;;;;;13.70;10.03;;;;;;;4.50;65.36;99597.81;5088973;28;40100;-77
2023/04/10 02:44:19;;;;;;;15.17;10.83;;;;;;;4.51;65.66;99603.03;5073842;28;40557;-77
2023/04/10 02:46:47;;;;;;;14.90;10.93;;;;;;;4.50;64.73;99611.78;5073350;28;43267;-77
2023/04/10 02:49:15;;;;;;;13.30;10.03;;;;;;;4.50;64.35;99614.41;5090634;28;42201;-77
2023/04/10 02:51:44;;;;;;;12.97;9.80;;;;;;;4.48;64.01;99615.34;5073766;28;40146;-77
2023/04/10 02:54:13;;;;;;;11.50;9.27;;;;;;;4.37;63.62;99601.66;5090679;28;41914;-77
2023/04/10 02:56:42;;;;;;;12.53;9.37;;;;;;;4.38;63.32;99617.34;5073490;28;41959;-76
2023/04/10 02:59:09;;;;;;;10.87;8.33;;;;;;;4.34;63.10;99620.94;5090519;28;42183;-77
2023/04/10 03:01:38;;;;;;;12.47;8.77;;;;;;;4.28;63.04;99619.34;5073372;28;41258;-77
2023/04/10 03:04:06;;;;;;;10.23;8.03;;;;;;;4.23;62.93;99612.50;5090729;28;41494;-77
2023/04/10 03:06:38;;;;;;;11.53;8.30;;;;;;;4.19;62.64;99623.97;5073303;28;42842;-77
2023/04/10 03:09:08;;;;;;;12.67;9.37;;;;;;;4.14;62.55;99615.34;5073681;28;41157;-77
2023/04/10 03:11:36;;;;;;;10.17;8.00;;;;;;;4.10;62.59;99611.06;5073208;28;40093;-77
2023/04/10 03:14:05;;;;;;;10.80;8.27;;;;;;;4.07;62.60;99608.53;5075365;28;40618;-77
2023/04/10 03:16:32;;;;;;;10.93;8.33;;;;;;;4.04;62.50;99613.84;5093969;28;43542;-77
2023/04/10 03:19:03;;;;;;;10.90;9.23;;;;;;;3.88;63.12;99587.13;5091026;28;42589;-77
2023/04/10 03:21:31;;;;;;;11.43;8.93;;;;;;;3.99;64.06;99603.47;5095105;28;41015;-78
2023/04/10 03:23:59;;;;;;;14.20;10.00;;;;;;;3.94;64.91;99582.63;5094093;28;41861;-77
2023/04/10 03:26:29;;;;;;;12.57;10.17;;;;;;;4.03;66.38;99580.66;5093699;28;42744;-78
2023/04/10 03:28:57;;;;;;;13.07;10.43;;;;;;;4.05;66.00;99578.88;5093989;28;42984;-77
2023/04/10 03:31:25;;;;;;;12.20;9.83;;;;;;;4.05;65.49;99589.38;5076924;28;40180;-77
2023/04/10 03:33:55;;;;;;;11.47;10.03;;;;;;;4.06;65.27;99591.09;5090727;28;41781;-77
2023/04/10 03:36:23;;;;;;;12.47;10.13;;;;;;;4.04;64.86;99600.75;5076519;28;41757;-76
2023/04/10 03:38:51;;;;;;;11.27;9.10;;;;;;;4.03;64.70;99596.41;5076765;28;41253;-78
2023/04/10 03:41:20;;;;;;;11.67;8.90;;;;;;;3.95;64.42;99592.22;5094766;28;40746;-77
2023/04/10 03:43:49;;;;;;;11.23;8.50;;;;;;;3.97;64.22;99603.50;5076604;28;41822;-77
2023/04/10 03:46:17;;;;;;;12.40;9.47;;;;;;;3.94;64.15;99590.50;5093661;28;42896;-77
2023/04/10 03:48:46;;;;;;;10.20;8.57;;;;;;;3.92;64.35;99589.66;5076575;28;41159;-77
2023/04/10 03:51:14;;;;;;;13.70;10.63;;;;;;;3.92;66.02;99579.19;5076225;28;40795;-77
2023/04/10 03:53:42;;;;;;;12.57;9.90;;;;;;;3.91;65.63;99582.69;5076839;28;41733;-77
2023/04/10 03:56:14;;;;;;;12.97;9.97;;;;;;;3.89;65.35;99581.88;5090851;28;42510;-77
2023/04/10 03:58:43;;;;;;;11.57;9.67;;;;;;;3.88;65.12;99582.75;5076513;28;41242;-78
2023/04/10 04:01:13;;;;;;;12.93;9.40;;;;;;;3.85;64.88;99582.81;5076237;28;40025;-77
2023/04/10 04:03:56;;;;;;;11.33;9.10;;;;;;;3.83;64.52;99589.03;5090356;28;41648;-78
2023/04/10 04:06:43;;;;;;;11.20;9.17;;;;;;;3.78;64.36;99594.38;5092867;28;43398;-78
2023/04/10 04:09:26;;;;;;;10.00;7.87;;;;;;;3.75;64.36;99601.41;5093314;28;41292;-77
2023/04/10 04:11:55;;;;;;;10.37;8.13;;;;;;;3.59;64.14;99585.19;5092766;28;39118;-78
2023/04/10 04:14:42;;;;;;;11.13;8.53;;;;;;;3.67;64.07;99613.84;5092663;28;41545;-77
2023/04/10 04:17:33;;;;;;;9.47;7.50;;;;;;;3.65;64.15;99607.78;5093770;28;42660;-77
2023/04/10 04:20:05;;;;;;;13.27;9.23;;;;;;;3.61;64.21;99605.22;5091195;28;42431;-78
2023/04/10 04:22:50;;;;;;;12.97;9.53;;;;;;;3.57;64.23;99594.84;5076226;28;40074;-78
2023/04/10 04:25:42;;;;;;;10.27;7.53;;;;;;;3.57;64.26;99597.47;5091225;28;40628;-77
2023/04/10 04:28:29;;;;;;;10.77;8.33;;;;;;;3.54;64.59;99597.53;5091121;28;43842;-77
2023/04/10 04:31:31;;;;;;;10.97;8.27;;;;;;;3.54;64.52;99598.41;5074598;28;41470;-77
2023/04/10 04:34:09;;;;;;;13.13;9.40;;;;;;;3.54;64.56;99605.41;5091044;28;40720;-78
2023/04/10 04:36:37;;;;;;;13.23;9.80;;;;;;;3.55;64.50;99604.50;5092762;28;40413;-78
2023/04/10 04:39:31;;;;;;;14.27;10.77;;;;;;;3.54;64.58;99597.53;5076591;28;41411;-78
2023/04/10 04:42:19;;;;;;;11.63;8.80;;;;;;;3.58;64.24;99604.44;5092354;28;42450;-78
2023/04/10 04:45:13;;;;;;;11.50;9.37;;;;;;;3.60;64.44;99602.63;5092727;28;41805;-78
2023/04/10 04:47:59;;;;;;;12.00;9.00;;;;;;;3.63;65.08;99596.47;5093793;28;41824;-78
2023/04/10 04:50:34;;;;;;;10.07;7.90;;;;;;;3.67;65.32;99591.13;5076010;28;41635;-77
2023/04/10 04:53:15;;;;;;;11.40;9.03;;;;;;;3.59;65.06;99579.94;5075288;28;41133;-78
2023/04/10 04:56:02;;;;;;;11.80;8.57;;;;;;;3.76;64.85;99609.25;5075781;28;39979;-77
2023/04/10 04:58:59;;;;;;;9.10;7.60;;;;;;;3.84;64.24;99602.06;5078778;28;40463;-77
2023/04/10 05:01:39;;;;;;;11.27;8.57;;;;;;;3.86;64.21;99600.28;5075136;28;42614;-77
2023/04/10 05:04:21;;;;;;;11.27;7.87;;;;;;;3.95;64.00;99607.06;5089667;28;43068;-78
2023/04/10 05:07:09;;;;;;;11.73;8.63;;;;;;;4.03;64.26;99602.50;5093545;28;40033;-78
2023/04/10 05:09:40;;;;;;;13.60;11.00;;;;;;;4.13;67.61;99579.53;5092439;28;40625;-77
2023/04/10 05:12:19;;;;;;;15.60;11.07;;;;;;;4.25;70.00;99571.38;5092144;28;41658;-78
2023/04/10 05:15:14;;;;;;;18.67;12.13;;;;;;;4.39;68.58;99590.22;5076361;28;43142;-77
2023/04/10 05:18:05;;;;;;;13.57;10.63;;;;;;;4.51;67.92;99589.91;5087349;28;40752;-77
2023/04/10 05:20:51;;;;;;;13.23;9.93;;;;;;;4.64;67.93;99591.31;5092110;28;41306;-78
2023/04/10 05:23:35;;;;;;;12.43;9.80;;;;;;;4.77;67.21;99602.34;5088850;28;43834;-78
2023/04/10 05:26:29;;;;;;;15.20;11.27;;;;;;;4.91;66.59;99599.34;5089640;28;43451;-78
2023/04/10 05:29:15;;;;;;;11.73;9.03;;;;;;;5.05;65.73;99605.06;5092391;28;39047;-78
2023/04/10 05:31:46;;;;;;;12.20;9.60;;;;;;;5.15;65.06;99601.28;5091590;28;40745;-77
2023/04/10 05:34:18;;;;;;;12.10;9.70;;;;;;;5.25;64.90;99601.88;5075399;28;42023;-78
2023/04/10 05:37:05;;;;;;;12.87;9.13;;;;;;;5.33;64.81;99607.75;5091208;28;42548;-78
2023/04/10 05:40:01;;;;;;;15.33;9.83;;;;;;;5.41;64.64;99604.00;5089186;28;40674;-78
2023/04/10 05:42:43;;;;;;;10.83;8.50;;;;;;;5.56;64.40;99614.97;5091093;28;41888;-77
2023/04/10 05:45:22;;;;;;;11.60;9.27;;;;;;;5.73;64.29;99610.03;5088737;28;43719;-78
2023/04/10 05:48:20;;;;;;;10.87;9.30;;;;;;;5.90;64.35;99610.41;5074369;28;41712;-78
2023/04/10 05:51:17;;;;;;;13.10;10.60;;;;;;;6.05;64.96;99604.69;5074817;28;39079;-78
2023/04/10 05:54:17;;;;;;;13.90;10.63;;;;;;;6.15;64.62;99609.63;5078699;28;42643;-78
2023/04/10 05:57:10;;;;;;;13.17;11.07;;;;;;;6.28;64.30;99616.22;5086461;28;42634;-78
2023/04/10 05:59:57;;;;;;;13.07;10.03;;;;;;;6.41;63.88;99614.91;5091897;28;41437;-78
2023/04/10 06:02:45;;;;;;;11.03;9.07;;;;;;;6.58;63.61;99615.16;5091567;28;39149;-78
2023/04/10 06:05:21;;;;;;;11.50;9.63;;;;;;;6.75;63.55;99606.69;5074800;28;41761;-77
2023/04/10 06:07:53;;;;;;;15.47;11.20;;;;;;;7.02;63.59;99615.41;5091199;28;43032;-77
2023/04/10 06:10:21;;;;;;;13.10;10.20;;;;;;;7.28;62.95;99612.69;5074621;28;41237;-78
2023/04/10 06:12:50;;;;;;;11.07;9.40;;;;;;;7.46;63.12;99603.22;5074410;28;39484;-78
2023/04/10 06:15:22;;;;;;;13.90;11.40;;;;;;;7.73;63.21;99610.06;5089852;28;42518;-78
2023/04/10 06:17:50;;;;;;;13.50;10.80;;;;;;;7.98;63.25;99604.69;5091021;28;42817;-78
2023/04/10 06:20:18;;;;;;;15.30;11.87;;;;;;;8.24;62.88;99607.13;5091202;28;42353;-77
2023/04/10 06:22:46;;;;;;;14.33;10.87;;;;;;;8.49;62.51;99614.06;5091227;28;40085;-78
2023/04/10 06:25:14;;;;;;;12.60;10.47;;;;;;;8.43;61.95;99591.41;5074119;28;40996;-78
2023/04/10 06:27:42;;;;;;;12.13;10.23;;;;;;;8.60;61.96;99614.47;5073625;28;41710;-78
2023/04/10 06:30:13;;;;;;;13.83;11.57;;;;;;;8.66;62.17;99603.63;5073532;28;41217;-78
2023/04/10 06:32:41;;;;;;;13.90;11.50;;;;;;;8.70;62.25;99610.50;5090924;28;40969;-78
2023/04/10 06:35:10;;;;;;;14.10;11.37;;;;;;;8.78;62.73;99597.81;5073892;28;40403;-78
2023/04/10 06:37:38;;;;;;;12.90;11.20;;;;;;;8.93;62.48;99606.88;5090770;28;42665;-78
2023/04/10 06:40:08;;;;;;;13.97;12.33;;;;;;;9.06;62.54;99604.53;5090876;28;42553;-78
2023/04/10 06:42:36;;;;;;;14.03;11.70;;;;;;;9.19;62.48;99597.78;5092112;28;40013;-78
2023/04/10 06:45:25;;;;;;;13.37;11.87;;;;;;;9.42;62.72;99594.94;5090269;28;41900;-78
2023/04/10 06:47:53;;;;;;;13.77;11.50;;;;;;;9.63;62.47;99599.25;5089745;28;41944;-78
2023/04/10 06:50:21;;;;;;;13.97;11.47;;;;;;;9.81;61.80;99586.06;5090842;28;43241;-81
2023/04/10 06:52:49;;;;;;;13.90;12.43;;;;;;;10.12;61.15;99602.22;5073720;28;40442;-79
2023/04/10 06:55:17;;;;;;;14.03;12.43;;;;;;;10.46;60.36;99605.88;5073604;28;40634;-78
2023/04/10 06:57:44;;;;;;;14.67;12.10;;;;;;;10.68;59.63;99611.78;5092107;28;43727;-78
2023/04/10 07:00:13;;;;;;;15.20;12.60;;;;;;;10.64;58.84;99581.09;5073647;28;42339;-80
2023/04/10 07:02:42;;;;;;;14.50;12.13;;;;;;;11.04;58.04;99615.19;5092000;28;40019;-78
2023/04/10 07:05:10;;;;;;;14.07;11.97;;;;;;;11.26;57.51;99617.56;5091853;28;41796;-79
2023/04/10 07:07:38;;;;;;;13.90;12.20;;;;;;;11.50;56.89;99631.31;5090882;28;43575;-78
2023/04/10 07:10:07;;;;;;;13.97;12.10;;;;;;;11.82;55.42;99635.75;5092029;28;43356;-78
2023/04/10 07:12:34;;;;;;;15.07;12.87;;;;;;;12.34;55.11;99635.50;5090734;28;40127;-78
2023/04/10 07:15:02;;;;;;;13.57;11.83;;;;;;;12.82;53.80;99642.41;5090232;28;41791;-77
2023/04/10 07:17:31;;;;;;;13.30;11.90;;;;;;;13.12;53.97;99636.19;5090540;28;43695;-78
2023/04/10 07:20:01;;;;;;;13.27;11.87;;;;;;;13.32;51.98;99613.75;5091568;28;43231;-79
2023/04/10 07:22:28;;;;;;;14.13;12.63;;;;;;;14.07;52.24;99639.16;5091657;28;40928;-78
2023/04/10 07:24:56;;;;;;;14.00;12.53;;;;;;;14.74;50.42;99655.09;5073472;28;40728;-78
2023/04/10 07:27:24;;;;;;;14.33;12.83;;;;;;;15.31;49.99;99654.78;5089941;28;42560;-78
2023/04/10 07:29:55;;;;;;;12.63;11.23;;;;;;;15.59;47.55;99644.88;5090421;28;41693;-78
2023/04/10 07:32:23;;;;;;;13.13;11.83;;;;;;;15.87;46.98;99667.81;5073179;28;39105;-78
2023/04/10 07:34:51;;;;;;;13.23;11.93;;;;;;;15.88;47.06;99649.00;5090477;28;40820;-78
2023/04/10 07:37:21;;;;;;;13.57;12.10;;;;;;;16.23;46.61;99664.28;5090153;28;41888;-78
2023/04/10 07:39:48;;;;;;;12.47;11.10;;;;;;;16.44;44.26;99668.09;5090623;28;42220;-76
2023/04/10 07:42:16;;;;;;;12.53;11.23;;;;;;;16.80;43.97;99681.44;5091717;28;40014;-80
2023/04/10 07:44:44;;;;;;;13.50;12.10;;;;;;;17.05;44.73;99679.59;5090224;28;41731;-79
2023/04/10 07:47:12;;;;;;;12.17;10.90;;;;;;;17.28;42.31;99689.38;5072988;28;41368;-78
2023/04/10 07:49:40;;;;;;;12.87;11.53;;;;;;;17.91;42.10;99688.03;5073310;28;41155;-78
2023/04/10 07:52:08;;;;;;;12.10;10.90;;;;;;;18.87;41.74;99685.56;5089738;28;39842;-79
2023/04/10 07:54:37;;;;;;;12.40;11.20;;;;;;;19.96;38.83;99708.38;5091683;28;42745;-79
2023/04/10 07:57:05;;;;;;;11.67;10.57;;;;;;;20.97;35.79;99724.41;5090120;28;43270;-80
2023/04/10 07:59:33;;;;;;;11.93;10.73;;;;;;;21.62;33.94;99722.84;5073904;28;40875;-78
2023/04/10 08:02:00;;;;;;;11.03;10.03;;;;;;;22.26;33.30;99726.63;5093751;28;40348;-80
2023/04/10 08:04:28;;;;;;;10.63;9.63;;;;;;;22.63;32.80;99707.66;5093842;28;41891;-79
2023/04/10 08:06:56;;;;;;;11.23;10.23;;;;;;;23.19;32.63;99716.38;5076611;28;41892;-79
2023/04/10 08:09:24;;;;;;;11.47;10.47;;;;;;;23.56;31.27;99720.78;5076342;28;41568;-79
2023/04/10 08:11:54;;;;;;;10.97;9.97;;;;;;;23.62;31.62;99701.19;5093055;28;39888;-79
2023/04/10 08:14:21;;;;;;;10.70;9.60;;;;;;;23.82;31.14;99696.44;5094263;28;41521;-79
2023/04/10 08:16:49;;;;;;;11.50;10.40;;;;;;;24.05;30.09;99719.25;5091727;28;43759;-78
2023/04/10 08:19:17;;;;;;;10.87;9.87;;;;;;;23.94;30.52;99695.16;5093530;28;42269;-78
2023/04/10 08:21:45;;;;;;;11.10;10.10;;;;;;;23.83;30.93;99715.22;5076715;28;38887;-79
2023/04/10 08:24:12;;;;;;;11.37;10.37;;;;;;;24.03;30.54;99715.00;5093232;28;41826;-78
2023/04/10 08:26:40;;;;;;;10.87;9.87;;;;;;;24.78;29.47;99718.72;5094419;28;43870;-79
2023/04/10 08:29:09;;;;;;;11.33;10.13;;;;;;;25.88;28.12;99721.84;5093013;28;41285;-79
2023/04/10 08:31:37;;;;;;;11.30;10.30;;;;;;;26.99;27.38;99721.78;5092852;28;38754;-79
2023/04/10 08:34:05;;;;;;;10.70;9.80;;;;;;;28.05;26.02;99722.59;5076073;28;41356;-81
2023/04/10 08:36:32;;;;;;;11.97;10.80;;;;;;;29.07;23.97;99736.31;5093037;28;43180;-80
2023/04/10 08:39:00;;;;;;;10.83;9.93;;;;;;;29.93;23.99;99727.88;5094421;28;42073;-79
2023/04/10 08:41:28;;;;;;;11.90;10.87;;;;;;;30.70;22.65;99729.63;5094261;28;40057;-80
2023/04/10 08:43:56;;;;;;;10.07;9.23;;;;;;;30.80;22.22;99730.09;5093226;28;42752;-79
2023/04/10 08:46:26;;;;;;;10.97;10.10;;;;;;;30.36;22.99;99714.09;5092772;28;43710;-79
2023/04/10 08:48:59;;;;;;;11.13;10.13;;;;;;;30.32;22.42;99694.53;5092778;28;41328;-83
2023/04/10 08:51:32;;;;;;;10.50;9.60;;;;;;;30.71;22.60;99693.03;5090066;28;40598;-79
2023/04/10 08:54:06;;;;;;;10.02;9.23;;;;;;;31.07;21.81;99699.03;5089624;28;41764;-79
2023/04/10 08:56:35;;;;;;;10.02;9.23;;;;;;;31.62;20.48;99657.81;5090255;28;43058;-80
2023/04/10 08:59:03;;;;;;;9.85;9.05;;;;;;;32.97;20.42;99706.38;5093426;28;42752;-80
2023/04/10 09:01:33;;;;;;;10.32;9.52;;;;;;;33.84;19.41;99680.84;5093188;28;40707;-80
2023/04/10 09:04:01;;;;;;;9.57;8.80;;;;;;;34.15;18.90;99704.59;5093661;28;41800;-79
2023/04/10 09:06:28;;;;;;;8.68;7.97;;;;;;;34.24;18.87;99708.75;5075202;28;41553;-80
2023/04/10 09:08:58;;;;;;;8.98;8.35;;;;;;;34.59;18.87;99698.84;5075379;28;42277;-79
2023/04/10 09:11:59;;;;;;;8.93;8.23;;;;;;;34.80;17.74;99702.19;5092697;28;41124;-80
2023/04/10 09:14:28;;;;;;;8.57;7.88;;;;;;;34.54;18.38;99686.81;5091823;28;40842;-80
2023/04/10 09:17:12;;;;;;;8.80;8.10;;;;;;;34.51;18.38;99688.13;5092153;28;42046;-79
2023/04/10 09:19:40;;;;;;;9.80;9.00;;;;;;;34.37;17.93;99689.34;5075564;28;41708;-80
2023/04/10 09:22:08;;;;;;;9.02;8.32;;;;;;;33.49;18.16;99675.84;5093077;28;39914;-80
2023/04/10 09:24:38;;;;;;;9.18;8.32;;;;;;;32.48;18.71;99674.94;5075868;28;20229;-79
2023/04/10 09:27:07;;;;;;;8.32;7.63;;;;;;;31.56;19.46;99654.03;5091965;28;42915;-81
2023/04/10 09:29:44;;;;;;;8.85;8.15;;;;;;;31.74;19.47;99656.16;5074970;28;41088;-79
2023/04/10 09:32:13;;;;;;;8.65;7.95;;;;;;;32.99;18.91;99665.84;5091634;28;39731;-79
2023/04/10 09:34:55;;;;;;;8.98;8.27;;;;;;;33.81;17.83;99653.78;5093127;28;41486;-80
2023/04/10 09:37:31;;;;;;;8.85;8.15;;;;;;;34.19;17.48;99668.19;5090508;28;43537;-81
2023/04/10 09:39:59;;;;;;;8.50;7.70;;;;;;;33.65;17.62;99644.19;5088887;28;42221;-80
2023/04/10 09:42:32;;;;;;;9.35;8.65;;;;;;;32.75;18.35;99631.78;5074580;28;40284;-79
2023/04/10 09:45:01;;;;;;;8.50;7.80;;;;;;;31.80;18.98;99648.97;5091491;28;41971;-79
2023/04/10 09:47:31;;;;;;;8.55;7.60;;;;;;;31.47;19.99;99633.41;5091348;28;43695;-78
2023/04/10 09:50:01;;;;;;;9.27;8.47;;;;;;;31.26;20.00;99619.94;5092729;28;42008;-78
2023/04/10 09:52:30;;;;;;;8.37;7.67;;;;;;;31.33;19.03;99618.88;5091325;28;40809;-78
2023/04/10 09:54:59;;;;;;;8.13;7.47;;;;;;;31.02;19.70;99611.28;5091239;28;40693;-81
2023/04/10 09:57:30;;;;;;;6.90;6.30;;;;;;;30.42;20.16;99601.19;5074445;28;43145;-80
2023/04/10 10:00:00;;;;;;;7.43;6.73;;;;;;;30.37;20.47;99598.25;5074702;28;41062;-77
2023/04/10 10:02:35;;;;;;;7.43;6.83;;;;;;;30.16;20.01;99584.75;5092524;28;40012;-79
2023/04/10 10:05:05;;;;;;;8.07;7.43;;;;;;;30.19;20.08;99584.31;5090921;28;41944;-80
2023/04/10 10:07:33;;;;;;;8.33;7.67;;;;;;;30.44;20.14;99593.66;5090890;28;42780;-78
2023/04/10 10:10:03;;;;;;;8.17;7.47;;;;;;;30.91;19.75;99570.81;5092809;28;43210;-83
2023/04/10 10:12:37;;;;;;;8.63;7.93;;;;;;;30.84;20.07;99570.00;5091247;28;38912;-78
2023/04/10 10:15:11;;;;;;;8.10;7.40;;;;;;;30.48;20.43;99577.69;5089893;28;41803;-80
2023/04/10 10:17:47;;;;;;;8.20;7.50;;;;;;;30.07;21.79;99556.72;5091522;28;42688;-80
2023/04/10 10:20:20;;;;;;;7.53;6.93;;;;;;;30.27;21.21;99554.94;5090909;28;41252;-80
2023/04/10 10:22:50;;;;;;;8.13;7.43;;;;;;;30.55;19.72;99556.69;5089389;28;39876;-80
2023/04/10 10:25:19;;;;;;;7.40;6.80;;;;;;;31.48;19.18;99513.75;5091115;28;41961;-79
2023/04/10 10:27:51;;;;;;;7.82;7.22;;;;;;;33.11;17.75;99568.00;5073923;28;41760;-79
2023/04/10 10:30:20;;;;;;;8.18;7.47;;;;;;;33.97;16.99;99564.41;5089099;28;43308;-80
2023/04/10 10:32:50;;;;;;;8.65;7.82;;;;;;;34.89;17.04;99563.13;5090526;28;39674;-81
2023/04/10 10:35:19;;;;;;;7.43;6.82;;;;;;;35.20;16.33;99521.53;5091216;28;42079;-80
2023/04/10 10:37:47;;;;;;;8.00;7.40;;;;;;;35.93;15.91;99547.72;5073819;28;42743;-80
2023/04/10 10:40:21;;;;;;;7.55;6.95;;;;;;;35.83;16.21;99540.09;5090748;28;42480;-80
2023/04/10 10:42:58;;;;;;;8.10;7.40;;;;;;;35.21;16.31;99536.97;5090601;28;39842;-80
2023/04/10 10:45:33;;;;;;;8.25;7.65;;;;;;;34.62;16.63;99543.41;5087713;28;41815;-81
2023/04/10 10:48:02;;;;;;;8.15;7.55;;;;;;;34.41;16.58;99531.03;5091647;28;42830;-84
2023/04/10 10:50:52;;;;;;;8.30;7.60;;;;;;;35.01;16.87;99519.94;5091043;28;41508;-79
2023/04/10 10:53:35;;;;;;;7.93;7.32;;;;;;;35.76;16.42;99525.59;5091213;28;41641;-80
2023/04/10 10:56:34;;;;;;;6.95;6.38;;;;;;;36.39;16.61;99524.69;5074060;28;40789;-79
2023/04/10 10:59:02;;;;;;;6.57;6.07;;;;;;;37.05;15.66;99534.16;5090801;28;44111;-80
2023/04/10 11:01:30;;;;;;;7.00;6.40;;;;;;;37.62;15.37;99518.19;5090477;28;40607;-80
2023/04/10 11:04:00;;;;;;;6.20;5.70;;;;;;;37.69;14.68;99516.09;5073840;28;38861;-81
2023/04/10 11:06:49;;;;;;;6.90;6.35;;;;;;;36.87;14.79;99521.41;5090183;28;41225;-81
2023/04/10 11:09:49;;;;;;;6.35;5.88;;;;;;;36.64;14.80;99511.34;5090896;28;41600;-79
2023/04/10 11:12:20;;;;;;;6.85;6.35;;;;;;;36.15;15.62;99496.34;5090383;28;41581;-79
2023/04/10 11:14:59;;;;;;;6.90;6.40;;;;;;;35.81;15.65;99489.88;5091536;28;40064;-81
2023/04/10 11:18:01;;;;;;;6.55;6.05;;;;;;;35.82;15.37;99502.56;5091371;28;42663;-78
2023/04/10 11:20:30;;;;;;;6.32;5.82;;;;;;;35.96;15.66;99490.19;5092152;28;41850;-77
2023/04/10 11:23:10;;;;;;;6.47;5.97;;;;;;;36.15;15.39;99479.78;5075372;28;41274;-79
2023/04/10 11:25:49;;;;;;;5.93;5.47;;;;;;;36.66;14.91;99495.38;5093794;28;39755;-79
2023/04/10 11:28:44;;;;;;;7.10;6.40;;;;;;;36.84;14.31;99499.84;5090677;28;40747;-79
2023/04/10 11:31:18;;;;;;;6.45;5.95;;;;;;;36.46;15.45;99481.22;5027042;28;42148;-78
2023/04/10 11:33:46;;;;;;;6.63;6.13;;;;;;;36.03;15.67;99476.25;5073638;28;41344;-79
2023/04/10 11:36:17;;;;;;;6.88;6.22;;;;;;;35.46;16.20;99465.13;5093495;28;40867;-80
2023/04/10 11:38:56;;;;;;;5.65;5.25;;;;;;;36.30;15.56;99459.97;5093728;28;41366;-81
2023/04/10 11:41:29;;;;;;;5.70;5.30;;;;;;;37.36;15.08;99456.19;5093239;28;42677;-77
2023/04/10 11:43:57;;;;;;;6.47;5.97;;;;;;;37.69;14.15;99451.69;5093670;28;41035;-79
2023/04/10 11:46:25;;;;;;;6.25;5.82;;;;;;;37.36;14.31;99447.88;5076661;28;40074;-81
2023/04/10 11:48:54;;;;;;;5.97;5.57;;;;;;;37.20;13.89;99454.31;5076932;28;41075;-79
2023/04/10 11:51:26;;;;;;;6.20;5.70;;;;;;;36.90;14.84;99442.78;5093348;28;43703;-79
2023/04/10 11:54:06;;;;;;;5.57;5.18;;;;;;;37.08;14.10;99448.03;5093561;28;41873;-79
2023/04/10 11:56:35;;;;;;;6.18;5.68;;;;;;;36.96;14.75;99436.25;5092429;28;40967;-81